首页
METAR-TAF:

METAR-TAF

机场 :

Sachs Harbour, 西北特區, 加拿大

纬度: 72-00N, 经度: 125-17W, 海拔: 86米

当前天气观测

该预报发布于27分钟前的16:23 UTC
风速9节,风向西
温度 1°C
湿度 93%
气压 1014 hPa
能見度: 3.2公里
多云层高于500英尺
阴天层高于1200英尺
小雪, 轻雾

METAR: CYSY 261623Z 27009KT 2SM -SN BR BKN005 OVC012 01/00 A2993 RMK FG1ST5SC2 CIG RAG/ VIS VRB 1 TO 4 MILES SLP146

时间: 10:50 (16:50 UTC)

预报

该预报发布于2小时和11分钟前的14:39 UTC
预报有效从26日的 15点(UTC)到 26日的 23点(UTC)
风速12节,风向西
能見度: 4.8公里
散云层高于500英尺
阴天层高于1500英尺
小雪, 轻雾
短暂存在
从 26日的 15点(UTC)到 26日的 23点(UTC)
能見度: 1.6公里
阴天层高于500英尺
小雪
成为
从 26日的 15点(UTC)到 26日的 17点(UTC)
风速12节,风向西北,有时为22节阵风

TAF: CYSY 261439Z 2615/2623 28012KT 3SM -SN BR SCT005 OVC015 TEMPO 2615/2623 1SM -SN OVC005 BECMG 2615/2617 31012G22KT RMK NXT FCST BY 261900Z

超过4000个机场的气象观测和天气预报(METAR&TAF报告)。

可查询的气象台以黄色和红色小点在地图上表示。

将鼠标移到小点上方,可查看气象台名称。

然后点击查看天气观测和预报。

如需切换地图:点击带黑十字的绿色按钮放大地图;点击带横线的绿色按钮缩小地图;或者点击绿色箭头查看邻近地区的地图。


METAR-TAF: